Casper, WY (82605)

7:00 PM MDT on May 06, 2015 (GMT -0600)
Casper Mountain Foothills | | Change Station
CLOSE
Current Station
Personal Weather Station
Location: Casper, WY
Elevation: 5334 ft
Nearby Weather Stations
Active Advisory: Special Statement Active Notice: Public Information Statement

Elev 5334 ft 42.83 °N, 106.31 °W | Updated 2 minutes ago

Overcast
Overcast
42.3 °F
Feels Like 42 °F
N
0.0
Wind Variable Wind from North
Gusts 0.0 mph

Today
High -- | Low -- °F
--% Chance of Precip.
Yesterday
High -- | Low -- °F
Precip. -- in
5:53 AM 8:11 PM
Waning Gibbous, 91% visible
Pressure 29.80 in
Visibility 4.0 miles
Clouds Mostly Cloudy 1800 ft
Overcast 3900 ft
Windchill 42 °F
Dew Point 39 °F
Humidity 87%
Rainfall 0.20 in
Snow Depth Not available.
UV 0 out of 12
Pollen 5.20 out of 12
Air Quality Not available.
Flu Activity Sporadic
METAR KCPR 070053Z 02011KT 4SM -RA BR BKN018 OVC039 06/04 A2985 RMK AO2 SLP090 P0003 T00610039

More Conditions Fewer Conditions

Pressure 29.80 in
Visibility 4.0 miles
Clouds Mostly Cloudy 1800 ft
Overcast 3900 ft
Windchill 42 °F
Dew Point 39 °F
Humidity 87%
Rainfall 0.20 in
Snow Depth Not available.
UV 0 out of 12
Pollen 5.20 out of 12
Air Quality Not available.
Flu Activity Sporadic
METAR KCPR 070053Z 02011KT 4SM -RA BR BKN018 OVC039 06/04 A2985 RMK AO2 SLP090 P0003 T00610039

More Conditions Fewer Conditions

10-Day Weather Forecast

Almanac

Astronomy

May. 06, 2015 Rise Set
Actual Time
Civil Twilight
Nautical Twilight
Astronomical Twilight
Moon
Length of Visible Light
Length of Day
Tomorrow will be .
, % of the Moon is Illuminated

Today's Extremes

State Highs State Lows

Community

WunderPhotos

Upload Photos

1,819,053 photos uploaded!

WunderBlogs® & News

Nearby

Air Quality

  Air Quality AQ Index Pollutant
Not available.

Snow Depth

Station Depth Elevation

Earthquake Activity

City Distance Mag. Time & Date
Minimum magnitude displayed is 2.5.

Coastal Water Temperatures

Place Temperature

Stations

Nearby Weather Stations

Station Location Temp. Windchill Dew Point Humidity Wind Precip. Elev Updated Type
                   
Special Statement
Statement as of 11:38 AM MDT on May 06, 2015

... Rain may mix with snow by sunrise Thursday...

Light snow will return to the mountains tonight... with rain mixing
with snow down to 6500 feet by sunrise for a short period of time.
While no accumulation is expected on the relatively warm roadways in
the area... visibility may be impacted and reduced for a short period
of time just before and after sunrise.


Jb


1138 am MDT Wed may 6 2015

... Rain may mix with snow by sunrise Thursday...

Light snow will return to the mountains tonight... with rain mixing
with snow down to 6500 feet by sunrise for a short period of time.
While no accumulation is expected on the relatively warm roadways in
the area... visibility may be impacted and reduced for a short period
of time just before and after sunrise.